createdAt,value
2017-06-26T00:00:48.837Z,17.11
2017-06-26T00:01:48.821Z,17.19
2017-06-26T00:02:48.822Z,17.07
2017-06-26T00:03:48.816Z,17.16
2017-06-26T00:04:48.814Z,17.11
2017-06-26T00:05:48.811Z,17.14
2017-06-26T00:06:48.802Z,17.11
2017-06-26T00:07:48.807Z,17.06
2017-06-26T00:08:48.798Z,17.19
2017-06-26T00:09:48.792Z,17.14
2017-06-26T00:10:48.183Z,17.08
2017-06-26T00:11:48.791Z,17.18
2017-06-26T00:12:48.782Z,17.16
2017-06-26T00:13:48.774Z,17.18
2017-06-26T00:14:48.774Z,17.15
2017-06-26T00:15:48.770Z,17.12
2017-06-26T00:16:48.767Z,17.15
2017-06-26T00:17:48.763Z,17.08
2017-06-26T00:18:48.759Z,17.16
2017-06-26T00:19:48.787Z,17.21
2017-06-26T00:20:48.750Z,17.07
2017-06-26T00:21:48.749Z,17.15
2017-06-26T00:22:48.439Z,17.22
2017-06-26T00:23:48.741Z,17.18
2017-06-26T00:24:48.738Z,17.18
2017-06-26T00:25:48.730Z,17.16
2017-06-26T00:26:48.726Z,17.16
2017-06-26T00:27:48.723Z,17.14
2017-06-26T00:28:48.726Z,17.08
2017-06-26T00:29:48.714Z,17.11
2017-06-26T00:30:48.714Z,17.12
2017-06-26T00:31:48.711Z,17.11
2017-06-26T00:32:48.701Z,17.07
2017-06-26T00:33:48.702Z,17.11
2017-06-26T00:34:48.699Z,17.14
2017-06-26T00:35:48.695Z,17.12
2017-06-26T00:36:48.693Z,17.14
2017-06-26T00:37:48.691Z,17.11
2017-06-26T00:38:48.681Z,17.15
2017-06-26T00:39:48.674Z,17.11
2017-06-26T00:40:48.673Z,17.11
2017-06-26T00:41:48.669Z,17.15
2017-06-26T00:42:48.667Z,17.22
2017-06-26T00:43:48.694Z,17.23
2017-06-26T00:44:48.665Z,17.16
2017-06-26T00:45:48.356Z,17.21
2017-06-26T00:46:48.656Z,17.07
2017-06-26T00:47:48.651Z,17.15
2017-06-26T00:48:48.641Z,17.14
2017-06-26T00:49:48.637Z,17.16
2017-06-26T00:50:48.637Z,17.14
2017-06-26T00:51:48.632Z,17.06
2017-06-26T00:52:48.628Z,17.03
2017-06-26T00:53:48.654Z,17.18
2017-06-26T00:54:48.623Z,17.18
2017-06-26T00:55:48.619Z,17.15
2017-06-26T00:56:48.336Z,17.15
2017-06-26T00:57:48.608Z,17.18
2017-06-26T00:58:48.602Z,17.12
2017-06-26T00:59:48.296Z,17.14
2017-06-26T01:00:48.598Z,17.12
2017-06-26T01:01:48.591Z,17.16
2017-06-26T01:02:48.589Z,17.28
2017-06-26T01:03:48.593Z,17.26
2017-06-26T01:04:48.584Z,17.25
2017-06-26T01:05:48.276Z,17.28
2017-06-26T01:06:48.574Z,17.26
2017-06-26T01:07:48.575Z,17.26
2017-06-26T01:08:48.570Z,17.23
2017-06-26T01:09:48.564Z,17.21
2017-06-26T01:10:48.560Z,17.23
2017-06-26T01:11:48.558Z,17.21
2017-06-26T01:12:48.552Z,17.18
2017-06-26T01:13:48.248Z,17.21
2017-06-26T01:14:48.546Z,17.22
2017-06-26T01:15:48.543Z,17.04
2017-06-26T01:16:48.543Z,17.07
2017-06-26T01:17:48.535Z,17.06
2017-06-26T01:18:48.531Z,17.07
2017-06-26T01:19:48.528Z,17.01
2017-06-26T01:20:48.519Z,17.07
2017-06-26T01:21:48.521Z,17
2017-06-26T01:22:48.513Z,16.96
2017-06-26T01:23:48.209Z,16.91
2017-06-26T01:24:48.511Z,16.91
2017-06-26T01:25:48.505Z,16.88
2017-06-26T01:26:48.501Z,16.91
2017-06-26T01:27:48.499Z,16.91
2017-06-26T01:28:48.490Z,16.83
2017-06-26T01:29:48.187Z,16.82
2017-06-26T01:30:48.484Z,16.85
2017-06-26T01:31:48.178Z,16.79
2017-06-26T01:32:48.476Z,16.85
2017-06-26T01:33:48.473Z,16.73
2017-06-26T01:34:48.162Z,16.75
2017-06-26T01:35:48.482Z,16.75
2017-06-26T01:36:48.159Z,16.83
2017-06-26T01:37:48.455Z,16.81
2017-06-26T01:38:48.453Z,16.78
2017-06-26T01:39:48.447Z,16.79
2017-06-26T01:40:48.448Z,16.73
2017-06-26T01:41:48.443Z,16.76
2017-06-26T01:42:48.434Z,16.73
2017-06-26T01:43:48.429Z,16.76
2017-06-26T01:44:48.124Z,16.71
2017-06-26T01:45:48.121Z,16.7
2017-06-26T01:46:48.422Z,16.71
2017-06-26T01:47:48.418Z,16.75
2017-06-26T01:48:48.410Z,16.75
2017-06-26T01:49:48.412Z,16.73
2017-06-26T01:50:48.102Z,16.7
2017-06-26T01:51:48.401Z,16.78
2017-06-26T01:52:48.400Z,16.73
2017-06-26T01:53:48.391Z,16.75
2017-06-26T01:54:48.386Z,16.81
2017-06-26T01:55:48.386Z,16.79
2017-06-26T01:56:48.383Z,16.76
2017-06-26T01:57:48.375Z,16.73
2017-06-26T01:58:48.371Z,16.7
2017-06-26T01:59:48.368Z,16.83
2017-06-26T02:00:48.363Z,16.79
2017-06-26T02:01:48.056Z,16.71
2017-06-26T02:02:48.354Z,16.7
2017-06-26T02:03:48.350Z,16.73
2017-06-26T02:04:48.350Z,16.75
2017-06-26T02:05:48.345Z,16.78
2017-06-26T02:06:48.339Z,16.71
2017-06-26T02:07:48.332Z,16.76
2017-06-26T02:08:48.328Z,16.78
2017-06-26T02:09:48.324Z,16.79
2017-06-26T02:10:48.319Z,16.79
2017-06-26T02:11:48.343Z,16.82
2017-06-26T02:12:48.319Z,16.81
2017-06-26T02:13:48.309Z,16.82
2017-06-26T02:14:48.306Z,16.88
2017-06-26T02:15:48.305Z,16.81
2017-06-26T02:16:48.300Z,16.79
2017-06-26T02:17:48.291Z,16.83
2017-06-26T02:18:48.289Z,16.83
2017-06-26T02:19:48.289Z,16.89
2017-06-26T02:20:48.286Z,16.89
2017-06-26T02:21:48.285Z,16.88
2017-06-26T02:22:48.276Z,16.96
2017-06-26T02:23:47.965Z,16.82
2017-06-26T02:24:48.269Z,16.91
2017-06-26T02:25:48.260Z,16.88
2017-06-26T02:26:48.288Z,16.78
2017-06-26T02:27:48.254Z,16.93
2017-06-26T02:28:47.948Z,16.81
2017-06-26T02:29:48.250Z,16.82
2017-06-26T02:30:48.246Z,16.82
2017-06-26T02:31:48.239Z,16.91
2017-06-26T02:32:47.929Z,16.86
2017-06-26T02:33:48.228Z,16.86
2017-06-26T02:34:48.227Z,16.85
2017-06-26T02:35:47.944Z,16.89
2017-06-26T02:36:48.219Z,16.89
2017-06-26T02:37:48.215Z,16.88
2017-06-26T02:38:48.211Z,16.89
2017-06-26T02:39:48.204Z,16.91
2017-06-26T02:40:48.202Z,16.91
2017-06-26T02:41:47.896Z,16.88
2017-06-26T02:42:48.196Z,16.91
2017-06-26T02:43:47.584Z,16.97
2017-06-26T02:44:47.886Z,16.88
2017-06-26T02:45:48.182Z,16.96
2017-06-26T02:46:48.180Z,17
2017-06-26T02:47:48.177Z,16.93
2017-06-26T02:48:48.172Z,17
2017-06-26T02:49:47.865Z,16.94
2017-06-26T02:50:47.863Z,17
2017-06-26T02:51:48.158Z,17.01
2017-06-26T02:52:48.154Z,17
2017-06-26T02:53:48.152Z,17.01
2017-06-26T02:54:48.147Z,17.12
2017-06-26T02:55:48.145Z,17.11
2017-06-26T02:56:48.142Z,17.08
2017-06-26T02:57:48.136Z,17.11
2017-06-26T02:58:48.133Z,17.07
2017-06-26T02:59:47.822Z,17.11
2017-06-26T03:00:47.827Z,17.14
2017-06-26T03:01:48.117Z,17.07
2017-06-26T03:02:48.115Z,17.07
2017-06-26T03:03:48.115Z,17.12
2017-06-26T03:04:48.111Z,17
2017-06-26T03:05:48.143Z,17.01
2017-06-26T03:06:48.105Z,16.94
2017-06-26T03:07:48.097Z,16.97
2017-06-26T03:08:47.789Z,16.98
2017-06-26T03:09:48.087Z,16.94
2017-06-26T03:10:48.088Z,16.91
2017-06-26T03:11:48.080Z,16.96
2017-06-26T03:12:48.074Z,16.93
2017-06-26T03:13:47.769Z,17
2017-06-26T03:14:48.067Z,16.94
2017-06-26T03:15:47.761Z,17
2017-06-26T03:16:48.062Z,16.94
2017-06-26T03:17:48.059Z,16.97
2017-06-26T03:18:48.077Z,16.97
2017-06-26T03:19:48.055Z,16.98
2017-06-26T03:20:47.747Z,17.01
2017-06-26T03:21:48.043Z,17.07
2017-06-26T03:22:48.039Z,17.07
2017-06-26T03:23:48.032Z,17.08
2017-06-26T03:24:48.065Z,17.08
2017-06-26T03:25:48.028Z,17.08
2017-06-26T03:26:48.024Z,17.16
2017-06-26T03:27:48.021Z,17.16
2017-06-26T03:28:48.014Z,17.12
2017-06-26T03:29:48.013Z,17.03
2017-06-26T03:30:48.006Z,17.15
2017-06-26T03:31:48.002Z,17.16
2017-06-26T03:32:47.998Z,17.16
2017-06-26T03:33:47.997Z,17.14
2017-06-26T03:34:47.994Z,17.06
2017-06-26T03:35:47.986Z,17.15
2017-06-26T03:36:47.984Z,17.15
2017-06-26T03:37:47.978Z,17.18
2017-06-26T03:38:47.977Z,17.23
2017-06-26T03:39:47.973Z,17.28
2017-06-26T03:40:47.992Z,17.31
2017-06-26T03:41:47.962Z,17.34
2017-06-26T03:42:47.965Z,17.3
2017-06-26T03:43:47.960Z,17.31
2017-06-26T03:44:47.953Z,17.4
2017-06-26T03:45:47.946Z,17.38
2017-06-26T03:46:47.945Z,17.4
2017-06-26T03:47:47.946Z,17.41
2017-06-26T03:48:47.942Z,17.46
2017-06-26T03:49:47.939Z,17.4
2017-06-26T03:50:47.626Z,17.44
2017-06-26T03:51:47.928Z,17.46
2017-06-26T03:52:47.956Z,17.48
2017-06-26T03:53:47.922Z,17.52
2017-06-26T03:54:47.916Z,17.56
2017-06-26T03:55:47.913Z,17.66
2017-06-26T03:56:47.910Z,17.64
2017-06-26T03:57:47.905Z,17.59
2017-06-26T03:58:47.902Z,17.72
2017-06-26T03:59:47.899Z,17.71
2017-06-26T04:00:47.892Z,17.78
2017-06-26T04:01:47.890Z,17.77
2017-06-26T04:02:47.891Z,17.81
2017-06-26T04:03:47.883Z,17.84
2017-06-26T04:04:47.581Z,17.81
2017-06-26T04:05:47.875Z,17.82
2017-06-26T04:06:47.875Z,17.89
2017-06-26T04:07:47.869Z,17.84
2017-06-26T04:08:47.863Z,17.82
2017-06-26T04:09:47.866Z,17.92
2017-06-26T04:10:47.857Z,17.9
2017-06-26T04:11:47.858Z,17.95
2017-06-26T04:12:47.866Z,17.99
2017-06-26T04:13:47.871Z,18.11
2017-06-26T04:14:47.844Z,18.05
2017-06-26T04:15:47.844Z,18.12
2017-06-26T04:16:47.841Z,18.11
2017-06-26T04:17:47.839Z,18.17
2017-06-26T04:18:47.831Z,18.15
2017-06-26T04:19:47.829Z,18.15
2017-06-26T04:20:47.825Z,18.23
2017-06-26T04:21:47.823Z,18.23
2017-06-26T04:22:47.824Z,18.25
2017-06-26T04:23:47.816Z,18.27
2017-06-26T04:24:47.511Z,18.32
2017-06-26T04:25:47.812Z,18.26
2017-06-26T04:26:47.809Z,18.39
2017-06-26T04:27:47.808Z,18.27
2017-06-26T04:28:47.802Z,18.37
2017-06-26T04:29:47.798Z,18.42
2017-06-26T04:30:47.793Z,18.37
2017-06-26T04:31:47.489Z,18.41
2017-06-26T04:32:47.786Z,18.5
2017-06-26T04:33:47.783Z,18.54
2017-06-26T04:34:47.784Z,18.47
2017-06-26T04:35:47.777Z,18.48
2017-06-26T04:36:48.123Z,18.44
2017-06-26T04:37:47.774Z,18.47
2017-06-26T04:38:47.772Z,18.57
2017-06-26T04:39:47.764Z,18.58
2017-06-26T04:40:47.769Z,18.54
2017-06-26T04:41:47.757Z,18.58
2017-06-26T04:42:47.758Z,18.65
2017-06-26T04:43:47.754Z,18.69
2017-06-26T04:44:47.749Z,18.63
2017-06-26T04:45:47.448Z,18.67
2017-06-26T04:46:47.744Z,18.73
2017-06-26T04:47:47.739Z,18.7
2017-06-26T04:48:47.738Z,18.8
2017-06-26T04:49:47.437Z,18.65
2017-06-26T04:50:47.429Z,18.82
2017-06-26T04:51:47.732Z,18.88
2017-06-26T04:52:47.727Z,18.88
2017-06-26T04:53:47.424Z,18.91
2017-06-26T04:54:47.721Z,19
2017-06-26T04:55:47.417Z,19.02
2017-06-26T04:56:47.714Z,19.04
2017-06-26T04:57:47.717Z,19.18
2017-06-26T04:58:47.710Z,19.25
2017-06-26T04:59:47.407Z,19.23
2017-06-26T05:00:47.708Z,19.21
2017-06-26T05:01:47.702Z,19.32
2017-06-26T05:02:47.700Z,19.31
2017-06-26T05:03:47.698Z,19.28
2017-06-26T05:04:47.696Z,19.32
2017-06-26T05:05:47.692Z,19.36
2017-06-26T05:06:47.687Z,19.33
2017-06-26T05:07:47.687Z,19.37
2017-06-26T05:08:47.382Z,19.5
2017-06-26T05:09:47.680Z,19.56
2017-06-26T05:10:47.681Z,19.62
2017-06-26T05:11:47.678Z,19.71
2017-06-26T05:12:47.680Z,19.74
2017-06-26T05:13:47.672Z,19.83
2017-06-26T05:14:47.671Z,19.91
2017-06-26T05:15:47.669Z,19.88
2017-06-26T05:16:47.666Z,19.87
2017-06-26T05:17:47.661Z,19.98
2017-06-26T05:18:47.663Z,19.91
2017-06-26T05:19:47.659Z,19.98
2017-06-26T05:20:47.358Z,20.02
2017-06-26T05:21:47.656Z,20.08
2017-06-26T05:22:47.654Z,20.14
2017-06-26T05:23:47.650Z,20.26
2017-06-26T05:24:47.657Z,20.36
2017-06-26T05:25:47.652Z,20.57
2017-06-26T05:26:47.645Z,20.73
2017-06-26T05:27:47.642Z,20.77
2017-06-26T05:28:47.642Z,20.97
2017-06-26T05:29:47.336Z,20.92
2017-06-26T05:30:47.338Z,21.04
2017-06-26T05:31:47.638Z,20.98
2017-06-26T05:32:47.332Z,20.97
2017-06-26T05:33:47.640Z,21.03
2017-06-26T05:34:47.333Z,20.98
2017-06-26T05:35:47.631Z,20.97
2017-06-26T05:36:47.633Z,20.94
2017-06-26T05:37:47.350Z,20.91
2017-06-26T05:38:47.628Z,20.89
2017-06-26T05:39:47.325Z,20.79
2017-06-26T05:40:47.630Z,20.84
2017-06-26T05:41:47.626Z,20.66
2017-06-26T05:42:47.624Z,20.72
2017-06-26T05:43:47.626Z,20.73
2017-06-26T05:44:47.620Z,20.74
2017-06-26T05:45:47.623Z,20.7
2017-06-26T05:46:47.618Z,20.64
2017-06-26T05:47:47.618Z,20.62
2017-06-26T05:48:47.622Z,20.54
2017-06-26T05:49:47.637Z,20.52
2017-06-26T05:50:47.616Z,20.41
2017-06-26T05:51:47.615Z,20.36
2017-06-26T05:52:47.611Z,20.26
2017-06-26T05:53:47.611Z,20.2
2017-06-26T05:54:47.609Z,20.11
2017-06-26T05:55:47.635Z,20.06
2017-06-26T05:56:47.606Z,20.18
2017-06-26T05:57:47.601Z,20.16
2017-06-26T05:58:47.301Z,20.28
2017-06-26T05:59:47.600Z,20.21
2017-06-26T06:00:47.296Z,20.2
2017-06-26T06:01:47.600Z,20.23
2017-06-26T06:02:47.593Z,20.23
2017-06-26T06:03:47.590Z,20.18
2017-06-26T06:04:47.591Z,20.23
2017-06-26T06:05:47.588Z,20.14
2017-06-26T06:06:47.585Z,20.11
2017-06-26T06:07:47.583Z,20.2
2017-06-26T06:08:47.585Z,20.16
2017-06-26T06:09:47.582Z,20.03
2017-06-26T06:10:47.579Z,20.05
2017-06-26T06:11:47.577Z,20.06
2017-06-26T06:12:47.576Z,19.92
2017-06-26T06:13:47.272Z,19.84
2017-06-26T06:14:47.572Z,19.92
2017-06-26T06:15:47.570Z,19.86
2017-06-26T06:16:47.266Z,19.83
2017-06-26T06:17:47.566Z,19.77
2017-06-26T06:18:47.565Z,19.86
2017-06-26T06:19:47.562Z,19.84
2017-06-26T06:20:47.566Z,19.88
2017-06-26T06:21:47.561Z,19.92
2017-06-26T06:22:47.558Z,20.08
2017-06-26T06:23:47.558Z,20.05
2017-06-26T06:24:47.554Z,20.11
2017-06-26T06:25:47.551Z,20.11
2017-06-26T06:26:47.549Z,20.13
2017-06-26T06:27:47.548Z,20.23
2017-06-26T06:28:47.240Z,20.28
2017-06-26T06:29:47.246Z,20.32
2017-06-26T06:30:47.541Z,20.33
2017-06-26T06:31:47.538Z,20.36
2017-06-26T06:32:47.536Z,20.36
2017-06-26T06:33:47.534Z,20.5
2017-06-26T06:34:47.535Z,20.52
2017-06-26T06:35:47.537Z,20.55
2017-06-26T06:36:47.535Z,20.55
2017-06-26T06:37:47.531Z,20.57
2017-06-26T06:38:47.782Z,20.54
2017-06-26T06:39:47.527Z,20.52
2017-06-26T06:40:47.526Z,20.43
2017-06-26T06:41:47.220Z,20.48
2017-06-26T06:42:47.517Z,20.42
2017-06-26T06:43:47.521Z,20.43
2017-06-26T06:44:47.514Z,20.41
2017-06-26T06:45:47.517Z,20.31
2017-06-26T06:46:47.512Z,20.35
2017-06-26T06:47:47.514Z,20.29
2017-06-26T06:48:47.207Z,20.33
2017-06-26T06:49:47.513Z,20.39
2017-06-26T06:50:47.202Z,20.38
2017-06-26T06:51:47.506Z,20.5
2017-06-26T06:52:47.202Z,20.61
2017-06-26T06:53:47.503Z,20.66
2017-06-26T06:54:47.506Z,20.76
2017-06-26T06:55:47.498Z,20.69
2017-06-26T06:56:47.498Z,20.69
2017-06-26T06:57:47.193Z,20.8
2017-06-26T06:58:47.494Z,20.85
2017-06-26T06:59:47.493Z,20.91
2017-06-26T07:00:47.493Z,20.94
2017-06-26T07:01:47.492Z,20.94
2017-06-26T07:02:47.486Z,20.92
2017-06-26T07:03:47.794Z,20.94
2017-06-26T07:04:47.184Z,20.95
2017-06-26T07:05:47.485Z,20.98
2017-06-26T07:06:47.485Z,20.99
2017-06-26T07:07:47.483Z,21.09
2017-06-26T07:08:47.486Z,21.01
2017-06-26T07:09:47.179Z,21.03
2017-06-26T07:10:47.174Z,20.99
2017-06-26T07:11:47.489Z,20.98
2017-06-26T07:12:47.476Z,20.77
2017-06-26T07:13:47.476Z,20.72
2017-06-26T07:14:47.476Z,20.41
2017-06-26T07:15:47.475Z,19.92
2017-06-26T07:16:47.472Z,19.43
2017-06-26T07:17:47.470Z,18.8
2017-06-26T07:18:47.467Z,18.39
2017-06-26T07:19:47.500Z,17.81
2017-06-26T07:20:47.470Z,17.41
2017-06-26T07:21:47.466Z,17.03
2017-06-26T07:22:47.459Z,16.75
2017-06-26T07:23:47.458Z,16.49
2017-06-26T07:24:47.453Z,16.08
2017-06-26T07:25:47.455Z,15.96
2017-06-26T07:26:47.149Z,15.74
2017-06-26T07:27:47.145Z,15.53
2017-06-26T07:28:47.448Z,15.43
2017-06-26T07:29:47.452Z,15.29
2017-06-26T07:30:47.436Z,15.23
2017-06-26T07:31:47.436Z,15.17
2017-06-26T07:32:47.432Z,15.14
2017-06-26T07:33:47.126Z,15.02
2017-06-26T07:34:47.425Z,14.95
2017-06-26T07:35:47.124Z,14.89
2017-06-26T07:36:47.418Z,14.81
2017-06-26T07:37:47.422Z,14.77
2017-06-26T07:38:47.408Z,14.61
2017-06-26T07:39:47.402Z,14.68
2017-06-26T07:40:47.403Z,14.61
2017-06-26T07:41:47.398Z,14.58
2017-06-26T07:42:47.093Z,14.54
2017-06-26T07:43:47.088Z,14.61
2017-06-26T07:44:47.078Z,14.58
2017-06-26T07:45:47.384Z,14.58
2017-06-26T07:46:47.374Z,14.58
2017-06-26T07:47:47.371Z,14.61
2017-06-26T07:48:47.365Z,14.64
2017-06-26T07:49:47.362Z,14.64
2017-06-26T07:50:47.357Z,14.77
2017-06-26T07:51:47.352Z,14.81
2017-06-26T07:52:47.348Z,14.91
2017-06-26T07:53:47.343Z,15.06
2017-06-26T07:54:47.341Z,15.27
2017-06-26T07:55:47.336Z,15.5
2017-06-26T07:56:47.331Z,15.53
2017-06-26T07:57:47.022Z,15.82
2017-06-26T07:58:47.019Z,16.11
2017-06-26T07:59:47.327Z,16.7
2017-06-26T08:00:47.320Z,17.3
2017-06-26T08:01:47.330Z,17.92
2017-06-26T08:02:47.314Z,18.36
2017-06-26T08:03:47.308Z,18.67
2017-06-26T08:04:47.001Z,18.88
2017-06-26T08:05:47.307Z,19.16
2017-06-26T08:06:47.308Z,19.47
2017-06-26T08:07:47.303Z,19.92
2017-06-26T08:08:46.697Z,20.2
2017-06-26T08:09:47.303Z,20.55
2017-06-26T08:10:47.307Z,21.01
2017-06-26T08:11:47.311Z,21.24
2017-06-26T08:12:47.306Z,21.35
2017-06-26T08:13:47.313Z,21.35
2017-06-26T08:14:47.317Z,21.56
2017-06-26T08:15:47.322Z,21.75
2017-06-26T08:16:47.019Z,22.18
2017-06-26T08:17:47.029Z,22.45
2017-06-26T08:18:47.332Z,22.72
2017-06-26T08:19:47.034Z,23.1
2017-06-26T08:20:47.549Z,23.39
2017-06-26T08:21:47.350Z,23.48
2017-06-26T08:22:47.056Z,23.58
2017-06-26T08:23:47.362Z,23.69
2017-06-26T08:24:47.374Z,23.66
2017-06-26T08:25:47.375Z,23.58
2017-06-26T08:26:47.377Z,23.47
2017-06-26T08:27:47.410Z,23.27
2017-06-26T08:28:47.386Z,23.22
2017-06-26T08:29:47.394Z,23.27
2017-06-26T08:30:47.400Z,23.39
2017-06-26T08:31:47.408Z,23.46
2017-06-26T08:32:47.405Z,23.57
2017-06-26T08:33:47.412Z,23.58
2017-06-26T08:34:47.417Z,23.5
2017-06-26T08:35:47.119Z,23.53
2017-06-26T08:36:47.421Z,23.6
2017-06-26T08:37:47.428Z,23.65
2017-06-26T08:38:47.432Z,23.73
2017-06-26T08:39:47.469Z,23.88
2017-06-26T08:40:47.475Z,23.97
2017-06-26T08:41:47.447Z,23.78
2017-06-26T08:42:47.457Z,23.76
2017-06-26T08:43:47.458Z,23.8
2017-06-26T08:44:47.154Z,23.79
2017-06-26T08:45:47.463Z,23.83
2017-06-26T08:46:47.469Z,24.09
2017-06-26T08:47:47.475Z,24.34
2017-06-26T08:48:47.481Z,24.43
2017-06-26T08:49:47.483Z,24.52
2017-06-26T08:50:47.493Z,24.5
2017-06-26T08:51:47.494Z,24.69
2017-06-26T08:52:47.506Z,24.8
2017-06-26T08:53:47.511Z,24.95
2017-06-26T08:54:47.520Z,25.21
2017-06-26T08:55:47.527Z,25.32
2017-06-26T08:56:47.538Z,25.45
2017-06-26T08:57:47.544Z,25.6
2017-06-26T08:58:47.250Z,25.72
2017-06-26T08:59:47.565Z,25.91
2017-06-26T09:00:47.270Z,26.02
2017-06-26T09:01:47.587Z,26.09
2017-06-26T09:02:47.591Z,26.05
2017-06-26T09:03:47.295Z,26.07
2017-06-26T09:04:47.607Z,25.99
2017-06-26T09:05:47.621Z,25.98
2017-06-26T09:06:47.626Z,26.05
2017-06-26T09:07:47.634Z,25.99
2017-06-26T09:08:47.644Z,25.97
2017-06-26T09:09:47.952Z,25.98
2017-06-26T09:10:47.664Z,25.97
2017-06-26T09:11:47.673Z,25.97
2017-06-26T09:12:47.675Z,25.94
2017-06-26T09:13:47.692Z,26.1
2017-06-26T09:14:47.694Z,26.18
2017-06-26T09:15:47.702Z,26.32
2017-06-26T09:16:47.714Z,26.44
2017-06-26T09:17:47.716Z,26.57
2017-06-26T09:18:47.730Z,26.69
2017-06-26T09:19:47.750Z,26.75
2017-06-26T09:20:47.742Z,26.54
2017-06-26T09:21:47.747Z,26.4
2017-06-26T09:22:47.757Z,26.2
2017-06-26T09:23:47.764Z,26.09
2017-06-26T09:24:47.769Z,25.91
2017-06-26T09:25:47.775Z,25.98
2017-06-26T09:26:47.782Z,25.85
2017-06-26T09:27:47.791Z,25.92
2017-06-26T09:28:47.492Z,25.98
2017-06-26T09:29:47.497Z,25.94
2017-06-26T09:30:47.810Z,25.97
2017-06-26T09:31:47.510Z,26.01
2017-06-26T09:32:47.815Z,26.07
2017-06-26T09:33:47.827Z,26.06
2017-06-26T09:34:47.831Z,26.02
2017-06-26T09:35:47.835Z,26.15
2017-06-26T09:36:47.841Z,26.18
2017-06-26T09:37:47.848Z,26.07
2017-06-26T09:38:47.855Z,25.92
2017-06-26T09:39:47.866Z,25.83
2017-06-26T09:40:47.864Z,25.82
2017-06-26T09:41:47.878Z,25.83
2017-06-26T09:42:47.571Z,25.83
2017-06-26T09:43:47.881Z,25.97
2017-06-26T09:44:47.893Z,26.12
2017-06-26T09:45:47.889Z,26.13
2017-06-26T09:46:47.900Z,26.15
2017-06-26T09:47:47.904Z,26.29
2017-06-26T09:48:47.914Z,26.35
2017-06-26T09:49:47.919Z,26.5
2017-06-26T09:50:47.919Z,26.5
2017-06-26T09:51:47.925Z,26.58
2017-06-26T09:52:47.929Z,26.57
2017-06-26T09:53:47.934Z,26.58
2017-06-26T09:54:47.940Z,26.55
2017-06-26T09:55:47.950Z,26.48
2017-06-26T09:56:47.951Z,26.44
2017-06-26T09:57:47.958Z,26.44
2017-06-26T09:58:47.959Z,26.39
2017-06-26T09:59:47.965Z,26.33
2017-06-26T10:00:47.975Z,26.36
2017-06-26T10:01:47.976Z,26.43
2017-06-26T10:02:48.186Z,26.5
2017-06-26T10:03:47.988Z,26.65
2017-06-26T10:04:47.992Z,26.69
2017-06-26T10:05:48.002Z,26.84
2017-06-26T10:06:48.204Z,26.89
2017-06-26T10:07:48.009Z,26.77
2017-06-26T10:08:48.016Z,26.67
2017-06-26T10:09:47.716Z,26.43
2017-06-26T10:10:48.023Z,26.26
2017-06-26T10:11:48.029Z,26.01
2017-06-26T10:12:48.032Z,25.85
2017-06-26T10:13:47.735Z,25.7
2017-06-26T10:14:47.746Z,25.55
2017-06-26T10:15:47.742Z,25.38
2017-06-26T10:16:48.054Z,25.17
2017-06-26T10:17:48.062Z,24.95
2017-06-26T10:18:48.060Z,24.69
2017-06-26T10:19:48.063Z,24.55
2017-06-26T10:20:48.068Z,24.37
2017-06-26T10:21:47.769Z,24.2
2017-06-26T10:22:48.081Z,24.08
2017-06-26T10:23:48.114Z,23.95
2017-06-26T10:24:48.081Z,23.88
2017-06-26T10:25:48.088Z,23.83
2017-06-26T10:26:48.116Z,23.79
2017-06-26T10:27:48.094Z,23.78
2017-06-26T10:28:48.095Z,23.66
2017-06-26T10:29:48.095Z,23.61
2017-06-26T10:30:47.800Z,23.42
2017-06-26T10:31:48.102Z,23.22
2017-06-26T10:32:47.800Z,23.17
2017-06-26T10:33:48.109Z,23.01
2017-06-26T10:34:48.105Z,22.86
2017-06-26T10:35:48.109Z,22.76
2017-06-26T10:36:48.113Z,22.76
2017-06-26T10:37:47.808Z,22.77
2017-06-26T10:38:48.116Z,22.88
2017-06-26T10:39:48.117Z,22.91
2017-06-26T10:40:48.117Z,23.12
2017-06-26T10:41:48.132Z,23.15
2017-06-26T10:42:47.819Z,23.15
2017-06-26T10:43:48.120Z,23.23
2017-06-26T10:44:47.828Z,23.27
2017-06-26T10:45:48.126Z,23.2
2017-06-26T10:46:48.140Z,23.09
2017-06-26T10:47:48.133Z,23.04
2017-06-26T10:48:48.141Z,23.02
2017-06-26T10:49:48.138Z,22.91
2017-06-26T10:50:48.138Z,22.95
2017-06-26T10:51:48.139Z,23.07
2017-06-26T10:52:48.137Z,23.12
2017-06-26T10:53:48.141Z,23.23
2017-06-26T10:54:48.143Z,23.42
2017-06-26T10:55:48.144Z,23.47
2017-06-26T10:56:48.144Z,23.65
2017-06-26T10:57:48.145Z,23.79
2017-06-26T10:58:48.147Z,23.84
2017-06-26T10:59:48.153Z,23.83
2017-06-26T11:00:48.153Z,24
2017-06-26T11:01:48.160Z,23.93
2017-06-26T11:02:48.155Z,24.1
2017-06-26T11:03:48.161Z,24.21
2017-06-26T11:04:47.858Z,24.2
2017-06-26T11:05:48.160Z,24.35
2017-06-26T11:06:48.162Z,24.37
2017-06-26T11:07:47.865Z,24.32
2017-06-26T11:08:48.171Z,24.35
2017-06-26T11:09:47.874Z,24.43
2017-06-26T11:10:48.173Z,24.49
2017-06-26T11:11:48.173Z,24.45
2017-06-26T11:12:48.177Z,24.53
2017-06-26T11:13:48.183Z,24.47
2017-06-26T11:14:48.181Z,24.76
2017-06-26T11:15:48.185Z,24.83
2017-06-26T11:16:47.884Z,24.87
2017-06-26T11:17:48.192Z,25.1
2017-06-26T11:18:47.903Z,25.13
2017-06-26T11:19:48.194Z,25.28
2017-06-26T11:20:48.197Z,25.3
2017-06-26T11:21:48.205Z,25.35
2017-06-26T11:22:48.203Z,25.3
2017-06-26T11:23:48.209Z,25.35
2017-06-26T11:24:48.208Z,25.21
2017-06-26T11:25:47.909Z,25.13
2017-06-26T11:26:47.916Z,25
2017-06-26T11:27:48.221Z,24.87
2017-06-26T11:28:48.224Z,24.83
2017-06-26T11:29:48.223Z,24.81
2017-06-26T11:30:48.232Z,24.95
2017-06-26T11:31:48.237Z,24.99
2017-06-26T11:32:48.234Z,25.05
2017-06-26T11:33:48.236Z,25.06
2017-06-26T11:34:48.242Z,24.91
2017-06-26T11:35:48.249Z,24.84
2017-06-26T11:36:47.942Z,24.9
2017-06-26T11:37:48.247Z,24.68
2017-06-26T11:38:48.251Z,24.67
2017-06-26T11:39:48.255Z,24.58
2017-06-26T11:40:48.257Z,24.55
2017-06-26T11:41:47.961Z,24.52
2017-06-26T11:42:48.611Z,24.46
2017-06-26T11:43:48.267Z,24.31
2017-06-26T11:44:48.268Z,24.24
2017-06-26T11:45:48.270Z,24.21
2017-06-26T11:46:48.275Z,23.91
2017-06-26T11:47:48.275Z,23.8
2017-06-26T11:48:48.274Z,23.61
2017-06-26T11:49:48.282Z,23.69
2017-06-26T11:50:48.278Z,23.57
2017-06-26T11:51:48.286Z,23.55
2017-06-26T11:52:48.285Z,23.51
2017-06-26T11:53:48.290Z,23.66
2017-06-26T11:54:48.287Z,23.7
2017-06-26T11:55:48.290Z,23.72
2017-06-26T11:56:48.290Z,23.78
2017-06-26T11:57:48.294Z,23.78
2017-06-26T11:58:48.290Z,23.8
2017-06-26T11:59:48.293Z,23.68
2017-06-26T12:00:48.297Z,23.72
2017-06-26T12:01:48.298Z,23.69
2017-06-26T12:02:48.302Z,23.8
2017-06-26T12:03:48.303Z,23.85
2017-06-26T12:04:48.304Z,23.91
2017-06-26T12:05:48.305Z,23.94
2017-06-26T12:06:48.003Z,23.95
2017-06-26T12:07:48.309Z,23.94
2017-06-26T12:08:48.308Z,24.08
2017-06-26T12:09:48.010Z,24.18
2017-06-26T12:10:48.314Z,24.08
2017-06-26T12:11:48.322Z,24.09
2017-06-26T12:12:48.317Z,24.22
2017-06-26T12:13:48.315Z,24.18
2017-06-26T12:14:48.323Z,24.22
2017-06-26T12:15:48.325Z,24.31
2017-06-26T12:16:48.322Z,24.35
2017-06-26T12:17:48.327Z,24.5
2017-06-26T12:18:48.326Z,24.64
2017-06-26T12:19:48.328Z,24.71
2017-06-26T12:20:48.331Z,24.73
2017-06-26T12:21:48.336Z,24.67
2017-06-26T12:22:48.337Z,24.77
2017-06-26T12:23:48.340Z,24.65
2017-06-26T12:24:48.341Z,24.53
2017-06-26T12:25:48.340Z,24.49
2017-06-26T12:26:48.346Z,24.5
2017-06-26T12:27:48.344Z,24.52
2017-06-26T12:28:48.350Z,24.47
2017-06-26T12:29:48.043Z,24.47
2017-06-26T12:30:48.355Z,24.55
2017-06-26T12:31:48.354Z,24.6
2017-06-26T12:32:48.360Z,24.67
2017-06-26T12:33:48.362Z,24.71
2017-06-26T12:34:48.364Z,24.83
2017-06-26T12:35:48.362Z,24.8
2017-06-26T12:36:48.366Z,24.87
2017-06-26T12:37:48.366Z,24.99
2017-06-26T12:38:48.367Z,25.03
2017-06-26T12:39:48.369Z,25.15
2017-06-26T12:40:48.379Z,25.24
2017-06-26T12:41:48.377Z,25.32
2017-06-26T12:42:48.381Z,25.33
2017-06-26T12:43:48.079Z,25.35
2017-06-26T12:44:48.384Z,25.4
2017-06-26T12:45:48.391Z,25.5
2017-06-26T12:46:48.089Z,25.6
2017-06-26T12:47:48.391Z,25.57
2017-06-26T12:48:48.441Z,25.5
2017-06-26T12:49:48.397Z,25.5
2017-06-26T12:50:48.401Z,25.45
2017-06-26T12:51:48.407Z,25.47
2017-06-26T12:52:48.408Z,25.36
2017-06-26T12:53:48.412Z,25.39
2017-06-26T12:54:48.411Z,25.32
2017-06-26T12:55:48.425Z,25.28